sensor_id;sensor_type;location;lat;lon;timestamp;temperature;humidity
19924;DHT22;10124;53.068;18.224;2023-03-01T00:01:24;-3.30;99.90
19924;DHT22;10124;53.068;18.224;2023-03-01T00:03:54;-3.70;1.00
19924;DHT22;10124;53.068;18.224;2023-03-01T00:06:23;-3.30;1.00
19924;DHT22;10124;53.068;18.224;2023-03-01T00:11:24;-3.30;99.90
19924;DHT22;10124;53.068;18.224;2023-03-01T00:13:54;-3.30;99.90
19924;DHT22;10124;53.068;18.224;2023-03-01T00:16:25;-3.30;99.90
19924;DHT22;10124;53.068;18.224;2023-03-01T00:18:55;-3.50;99.90
19924;DHT22;10124;53.068;18.224;2023-03-01T00:21:23;-3.40;99.90
19924;DHT22;10124;53.068;18.224;2023-03-01T00:26:20;-3.50;99.90
19924;DHT22;10124;53.068;18.224;2023-03-01T00:31:18;-3.70;1.00
19924;DHT22;10124;53.068;18.224;2023-03-01T00:36:15;-3.60;99.90
19924;DHT22;10124;53.068;18.224;2023-03-01T00:38:44;-3.50;99.90
19924;DHT22;10124;53.068;18.224;2023-03-01T00:41:15;-3.40;99.90
19924;DHT22;10124;53.068;18.224;2023-03-01T00:46:14;-3.50;99.90
19924;DHT22;10124;53.068;18.224;2023-03-01T00:48:43;-3.50;99.90
19924;DHT22;10124;53.068;18.224;2023-03-01T00:51:15;-3.40;1.00
19924;DHT22;10124;53.068;18.224;2023-03-01T00:56:14;-3.70;1.00
19924;DHT22;10124;53.068;18.224;2023-03-01T00:58:43;-3.70;1.00
19924;DHT22;10124;53.068;18.224;2023-03-01T01:01:16;-3.60;1.00
19924;DHT22;10124;53.068;18.224;2023-03-01T01:03:47;-3.40;1.00
19924;DHT22;10124;53.068;18.224;2023-03-01T01:06:24;-3.30;99.90
19924;DHT22;10124;53.068;18.224;2023-03-01T01:08:54;-3.00;1.00
19924;DHT22;10124;53.068;18.224;2023-03-01T01:11:23;-3.40;99.90
19924;DHT22;10124;53.068;18.224;2023-03-01T01:13:52;-3.50;99.90
19924;DHT22;10124;53.068;18.224;2023-03-01T01:16:21;-3.50;99.90
19924;DHT22;10124;53.068;18.224;2023-03-01T01:21:20;-3.50;1.00
19924;DHT22;10124;53.068;18.224;2023-03-01T01:23:49;-3.40;1.00
19924;DHT22;10124;53.068;18.224;2023-03-01T01:26:22;-3.70;1.00
19924;DHT22;10124;53.068;18.224;2023-03-01T01:28:50;-4.00;1.00
19924;DHT22;10124;53.068;18.224;2023-03-01T01:33:46;-3.30;1.00
19924;DHT22;10124;53.068;18.224;2023-03-01T01:36:14;-3.10;1.00
19924;DHT22;10124;53.068;18.224;2023-03-01T01:38:42;-3.50;99.90
19924;DHT22;10124;53.068;18.224;2023-03-01T01:41:11;-3.80;1.00
19924;DHT22;10124;53.068;18.224;2023-03-01T01:43:48;-3.70;1.00
19924;DHT22;10124;53.068;18.224;2023-03-01T01:46:30;-3.70;1.00
19924;DHT22;10124;53.068;18.224;2023-03-01T01:49:07;-3.80;1.00
19924;DHT22;10124;53.068;18.224;2023-03-01T01:51:40;-3.70;1.00
19924;DHT22;10124;53.068;18.224;2023-03-01T01:54:15;-3.80;1.00
19924;DHT22;10124;53.068;18.224;2023-03-01T01:56:49;-3.80;1.00
19924;DHT22;10124;53.068;18.224;2023-03-01T01:59:19;-3.80;1.00
19924;DHT22;10124;53.068;18.224;2023-03-01T02:01:52;-3.80;1.00
19924;DHT22;10124;53.068;18.224;2023-03-01T02:04:21;-3.80;1.00
19924;DHT22;10124;53.068;18.224;2023-03-01T02:07:01;-3.80;1.00
19924;DHT22;10124;53.068;18.224;2023-03-01T02:09:30;-3.90;1.00
19924;DHT22;10124;53.068;18.224;2023-03-01T02:12:02;-3.80;1.00
19924;DHT22;10124;53.068;18.224;2023-03-01T02:16:59;-3.90;1.00
19924;DHT22;10124;53.068;18.224;2023-03-01T02:22:23;-3.90;1.00
19924;DHT22;10124;53.068;18.224;2023-03-01T02:25:02;-3.90;1.00
19924;DHT22;10124;53.068;18.224;2023-03-01T02:27:53;-4.00;1.00
19924;DHT22;10124;53.068;18.224;2023-03-01T02:32:54;-4.00;1.00
19924;DHT22;10124;53.068;18.224;2023-03-01T02:35:37;-4.10;1.00
19924;DHT22;10124;53.068;18.224;2023-03-01T02:38:07;-4.00;1.00
19924;DHT22;10124;53.068;18.224;2023-03-01T02:40:37;-4.00;1.00
19924;DHT22;10124;53.068;18.224;2023-03-01T02:43:09;-4.10;1.00
19924;DHT22;10124;53.068;18.224;2023-03-01T02:45:47;-4.20;1.00
19924;DHT22;10124;53.068;18.224;2023-03-01T02:48:15;-3.90;1.00
19924;DHT22;10124;53.068;18.224;2023-03-01T02:53:41;-3.60;1.00
19924;DHT22;10124;53.068;18.224;2023-03-01T02:58:43;-3.90;1.00
19924;DHT22;10124;53.068;18.224;2023-03-01T03:03:47;-3.80;1.00
19924;DHT22;10124;53.068;18.224;2023-03-01T03:11:11;-3.90;1.00
19924;DHT22;10124;53.068;18.224;2023-03-01T03:18:44;-3.80;1.00
19924;DHT22;10124;53.068;18.224;2023-03-01T03:21:13;-3.90;1.00
19924;DHT22;10124;53.068;18.224;2023-03-01T03:23:41;-4.30;1.00
19924;DHT22;10124;53.068;18.224;2023-03-01T03:36:06;-3.90;1.00
19924;DHT22;10124;53.068;18.224;2023-03-01T03:38:34;-3.30;1.00
19924;DHT22;10124;53.068;18.224;2023-03-01T03:41:05;-3.10;1.00
19924;DHT22;10124;53.068;18.224;2023-03-01T03:43:36;-3.50;1.00
19924;DHT22;10124;53.068;18.224;2023-03-01T03:48:34;-3.40;99.90
19924;DHT22;10124;53.068;18.224;2023-03-01T03:56:01;-3.30;99.90
19924;DHT22;10124;53.068;18.224;2023-03-01T04:03:26;-3.60;99.90
19924;DHT22;10124;53.068;18.224;2023-03-01T04:08:22;-3.60;1.00
19924;DHT22;10124;53.068;18.224;2023-03-01T04:10:55;-3.60;1.00
19924;DHT22;10124;53.068;18.224;2023-03-01T04:13:24;-3.60;1.00
19924;DHT22;10124;53.068;18.224;2023-03-01T04:15:54;-3.70;1.00
19924;DHT22;10124;53.068;18.224;2023-03-01T04:18:23;-3.80;1.00
19924;DHT22;10124;53.068;18.224;2023-03-01T04:20:53;-3.80;1.00
19924;DHT22;10124;53.068;18.224;2023-03-01T04:23:23;-4.00;1.00
19924;DHT22;10124;53.068;18.224;2023-03-01T04:25:53;-1.80;1.00
19924;DHT22;10124;53.068;18.224;2023-03-01T04:28:32;-3.60;24.70
19924;DHT22;10124;53.068;18.224;2023-03-01T04:31:07;-3.80;1.00
19924;DHT22;10124;53.068;18.224;2023-03-01T04:33:48;-3.80;1.00
19924;DHT22;10124;53.068;18.224;2023-03-01T04:36:17;-3.50;1.00
19924;DHT22;10124;53.068;18.224;2023-03-01T04:41:18;-3.40;1.00
19924;DHT22;10124;53.068;18.224;2023-03-01T04:43:46;-3.40;1.00
19924;DHT22;10124;53.068;18.224;2023-03-01T04:46:17;-3.30;1.00
19924;DHT22;10124;53.068;18.224;2023-03-01T04:51:14;-3.00;1.00
19924;DHT22;10124;53.068;18.224;2023-03-01T04:53:44;-3.30;99.90
19924;DHT22;10124;53.068;18.224;2023-03-01T04:58:41;-3.20;99.90
19924;DHT22;10124;53.068;18.224;2023-03-01T05:01:18;-3.40;1.00
19924;DHT22;10124;53.068;18.224;2023-03-01T05:03:49;-3.40;1.00
19924;DHT22;10124;53.068;18.224;2023-03-01T05:06:18;-3.20;99.90
19924;DHT22;10124;53.068;18.224;2023-03-01T05:11:15;-3.20;99.90
19924;DHT22;10124;53.068;18.224;2023-03-01T05:18:40;-3.40;99.90
19924;DHT22;10124;53.068;18.224;2023-03-01T05:21:11;-3.50;99.90
19924;DHT22;10124;53.068;18.224;2023-03-01T05:23:39;-3.90;1.00
19924;DHT22;10124;53.068;18.224;2023-03-01T05:26:07;-3.60;1.00
19924;DHT22;10124;53.068;18.224;2023-03-01T05:36:12;-3.60;1.00
19924;DHT22;10124;53.068;18.224;2023-03-01T05:41:14;-3.40;1.00
19924;DHT22;10124;53.068;18.224;2023-03-01T05:43:43;-2.80;1.00
19924;DHT22;10124;53.068;18.224;2023-03-01T05:46:13;-2.60;1.00
19924;DHT22;10124;53.068;18.224;2023-03-01T05:48:42;-3.40;1.00
19924;DHT22;10124;53.068;18.224;2023-03-01T05:51:11;-3.00;1.00
19924;DHT22;10124;53.068;18.224;2023-03-01T05:53:39;-3.20;1.00
19924;DHT22;10124;53.068;18.224;2023-03-01T06:01:03;-3.20;1.00
19924;DHT22;10124;53.068;18.224;2023-03-01T06:13:23;-2.90;1.00
19924;DHT22;10124;53.068;18.224;2023-03-01T06:20:53;-2.70;99.90
19924;DHT22;10124;53.068;18.224;2023-03-01T06:48:04;-1.60;99.90
19924;DHT22;10124;53.068;18.224;2023-03-01T06:58:00;-0.90;29.80
19924;DHT22;10124;53.068;18.224;2023-03-01T07:03:00;-0.70;1.00
19924;DHT22;10124;53.068;18.224;2023-03-01T07:05:30;-0.60;1.00
19924;DHT22;10124;53.068;18.224;2023-03-01T07:12:57;0.10;99.90
19924;DHT22;10124;53.068;18.224;2023-03-01T07:22:52;-0.30;1.00
19924;DHT22;10124;53.068;18.224;2023-03-01T07:27:51;-0.10;1.00
19924;DHT22;10124;53.068;18.224;2023-03-01T07:50:03;0.70;1.00
19924;DHT22;10124;53.068;18.224;2023-03-01T08:17:14;2.30;1.00
19924;DHT22;10124;53.068;18.224;2023-03-01T08:19:42;2.90;90.60
19924;DHT22;10124;53.068;18.224;2023-03-01T08:27:05;2.80;1.00
19924;DHT22;10124;53.068;18.224;2023-03-01T08:32:01;3.10;1.00
19924;DHT22;10124;53.068;18.224;2023-03-01T08:36:58;3.80;1.20
19924;DHT22;10124;53.068;18.224;2023-03-01T08:39:26;4.10;1.00
19924;DHT22;10124;53.068;18.224;2023-03-01T08:44:22;4.90;1.00
19924;DHT22;10124;53.068;18.224;2023-03-01T08:46:50;6.10;1.00
19924;DHT22;10124;53.068;18.224;2023-03-01T08:51:48;6.20;1.00
19924;DHT22;10124;53.068;18.224;2023-03-01T08:54:20;6.60;1.00
19924;DHT22;10124;53.068;18.224;2023-03-01T08:56:49;7.00;1.00
19924;DHT22;10124;53.068;18.224;2023-03-01T08:59:17;7.50;1.00
19924;DHT22;10124;53.068;18.224;2023-03-01T09:01:45;8.10;1.00
19924;DHT22;10124;53.068;18.224;2023-03-01T09:04:14;8.70;1.00
19924;DHT22;10124;53.068;18.224;2023-03-01T09:06:42;9.70;1.00
19924;DHT22;10124;53.068;18.224;2023-03-01T09:09:14;10.30;1.00
19924;DHT22;10124;53.068;18.224;2023-03-01T09:11:44;10.90;1.00
19924;DHT22;10124;53.068;18.224;2023-03-01T09:14:17;11.10;1.00
19924;DHT22;10124;53.068;18.224;2023-03-01T09:16:45;11.30;1.00
19924;DHT22;10124;53.068;18.224;2023-03-01T09:19:13;12.00;1.00
19924;DHT22;10124;53.068;18.224;2023-03-01T09:21:41;12.10;1.00
19924;DHT22;10124;53.068;18.224;2023-03-01T09:24:14;12.40;1.00
19924;DHT22;10124;53.068;18.224;2023-03-01T09:26:42;12.60;1.00
19924;DHT22;10124;53.068;18.224;2023-03-01T09:29:15;12.40;1.00
19924;DHT22;10124;53.068;18.224;2023-03-01T09:31:43;12.70;1.00
19924;DHT22;10124;53.068;18.224;2023-03-01T09:34:10;13.00;1.00
19924;DHT22;10124;53.068;18.224;2023-03-01T09:36:38;13.20;1.00
19924;DHT22;10124;53.068;18.224;2023-03-01T09:39:05;13.60;1.00
19924;DHT22;10124;53.068;18.224;2023-03-01T09:46:46;12.50;1.00
19924;DHT22;10124;53.068;18.224;2023-03-01T09:49:23;12.50;1.00
19924;DHT22;10124;53.068;18.224;2023-03-01T09:51:59;12.50;1.00
19924;DHT22;10124;53.068;18.224;2023-03-01T09:54:28;12.40;1.00
19924;DHT22;10124;53.068;18.224;2023-03-01T10:02:48;13.20;1.00
19924;DHT22;10124;53.068;18.224;2023-03-01T10:10:58;13.40;1.00
19924;DHT22;10124;53.068;18.224;2023-03-01T10:13:33;13.20;1.00
19924;DHT22;10124;53.068;18.224;2023-03-01T10:16:13;12.70;1.00
19924;DHT22;10124;53.068;18.224;2023-03-01T10:18:45;12.50;1.00
19924;DHT22;10124;53.068;18.224;2023-03-01T10:21:17;12.30;1.00
19924;DHT22;10124;53.068;18.224;2023-03-01T10:23:44;11.80;1.00
19924;DHT22;10124;53.068;18.224;2023-03-01T10:29:05;11.40;1.00
19924;DHT22;10124;53.068;18.224;2023-03-01T10:31:42;11.40;1.00
19924;DHT22;10124;53.068;18.224;2023-03-01T10:34:17;11.30;1.00
19924;DHT22;10124;53.068;18.224;2023-03-01T10:36:51;11.70;1.00
19924;DHT22;10124;53.068;18.224;2023-03-01T10:39:22;11.80;1.00
19924;DHT22;10124;53.068;18.224;2023-03-01T10:41:58;12.20;1.00
19924;DHT22;10124;53.068;18.224;2023-03-01T10:44:46;12.70;1.00
19924;DHT22;10124;53.068;18.224;2023-03-01T10:52:32;14.10;1.00
19924;DHT22;10124;53.068;18.224;2023-03-01T10:57:36;14.10;14.90
19924;DHT22;10124;53.068;18.224;2023-03-01T11:03:02;14.30;1.00
19924;DHT22;10124;53.068;18.224;2023-03-01T11:05:30;13.90;1.00
19924;DHT22;10124;53.068;18.224;2023-03-01T11:08:02;13.70;1.00
19924;DHT22;10124;53.068;18.224;2023-03-01T11:10:33;13.40;1.00
19924;DHT22;10124;53.068;18.224;2023-03-01T11:13:13;13.90;1.00
19924;DHT22;10124;53.068;18.224;2023-03-01T11:15:43;14.10;1.00
19924;DHT22;10124;53.068;18.224;2023-03-01T11:18:21;14.10;1.00
19924;DHT22;10124;53.068;18.224;2023-03-01T11:21:03;14.70;1.00
19924;DHT22;10124;53.068;18.224;2023-03-01T11:23:33;14.90;1.00
19924;DHT22;10124;53.068;18.224;2023-03-01T11:26:05;15.50;1.00
19924;DHT22;10124;53.068;18.224;2023-03-01T11:28:40;15.80;1.00
19924;DHT22;10124;53.068;18.224;2023-03-01T11:31:10;16.50;1.00
19924;DHT22;10124;53.068;18.224;2023-03-01T11:34:23;16.40;1.00
19924;DHT22;10124;53.068;18.224;2023-03-01T11:36:59;16.70;1.00
19924;DHT22;10124;53.068;18.224;2023-03-01T11:39:58;16.90;1.00
19924;DHT22;10124;53.068;18.224;2023-03-01T11:42:59;16.50;1.00
19924;DHT22;10124;53.068;18.224;2023-03-01T11:45:54;16.60;1.00
19924;DHT22;10124;53.068;18.224;2023-03-01T11:48:40;16.70;1.00
19924;DHT22;10124;53.068;18.224;2023-03-01T11:51:42;16.70;1.00
19924;DHT22;10124;53.068;18.224;2023-03-01T11:59:48;17.30;1.00
19924;DHT22;10124;53.068;18.224;2023-03-01T12:11:21;18.70;1.00
19924;DHT22;10124;53.068;18.224;2023-03-01T12:19:46;19.10;1.00
19924;DHT22;10124;53.068;18.224;2023-03-01T12:22:30;19.30;1.00
19924;DHT22;10124;53.068;18.224;2023-03-01T12:38:42;19.60;1.00
19924;DHT22;10124;53.068;18.224;2023-03-01T12:44:44;19.60;1.00
19924;DHT22;10124;53.068;18.224;2023-03-01T12:50:21;19.30;1.00
19924;DHT22;10124;53.068;18.224;2023-03-01T12:52:57;19.50;1.00
19924;DHT22;10124;53.068;18.224;2023-03-01T12:55:36;19.60;1.00
19924;DHT22;10124;53.068;18.224;2023-03-01T13:17:54;19.70;1.00
19924;DHT22;10124;53.068;18.224;2023-03-01T13:20:46;18.60;1.00
19924;DHT22;10124;53.068;18.224;2023-03-01T13:31:05;19.10;1.00
19924;DHT22;10124;53.068;18.224;2023-03-01T13:33:33;18.40;1.00
19924;DHT22;10124;53.068;18.224;2023-03-01T13:36:03;18.40;1.00
19924;DHT22;10124;53.068;18.224;2023-03-01T13:41:05;18.00;1.00
19924;DHT22;10124;53.068;18.224;2023-03-01T13:43:35;19.00;1.00
19924;DHT22;10124;53.068;18.224;2023-03-01T13:46:29;18.60;1.00
19924;DHT22;10124;53.068;18.224;2023-03-01T13:48:57;18.30;1.00
19924;DHT22;10124;53.068;18.224;2023-03-01T13:51:26;18.50;1.00
19924;DHT22;10124;53.068;18.224;2023-03-01T13:53:56;18.10;1.00
19924;DHT22;10124;53.068;18.224;2023-03-01T13:56:28;18.80;1.00
19924;DHT22;10124;53.068;18.224;2023-03-01T13:59:04;19.00;1.00
19924;DHT22;10124;53.068;18.224;2023-03-01T14:01:35;18.90;1.00
19924;DHT22;10124;53.068;18.224;2023-03-01T14:04:24;18.70;1.00
19924;DHT22;10124;53.068;18.224;2023-03-01T14:09:42;18.70;1.00
19924;DHT22;10124;53.068;18.224;2023-03-01T14:12:26;19.10;1.00
19924;DHT22;10124;53.068;18.224;2023-03-01T14:17:31;18.10;1.00
19924;DHT22;10124;53.068;18.224;2023-03-01T14:20:07;17.80;1.00
19924;DHT22;10124;53.068;18.224;2023-03-01T14:22:37;18.10;1.00
19924;DHT22;10124;53.068;18.224;2023-03-01T14:25:29;18.10;1.00
19924;DHT22;10124;53.068;18.224;2023-03-01T14:30:38;17.00;1.00
19924;DHT22;10124;53.068;18.224;2023-03-01T14:35:59;16.70;1.00
19924;DHT22;10124;53.068;18.224;2023-03-01T14:38:45;16.30;1.00
19924;DHT22;10124;53.068;18.224;2023-03-01T14:41:14;16.00;1.00
19924;DHT22;10124;53.068;18.224;2023-03-01T14:44:14;15.60;1.00
19924;DHT22;10124;53.068;18.224;2023-03-01T14:46:44;15.40;1.00
19924;DHT22;10124;53.068;18.224;2023-03-01T14:49:19;14.90;1.00
19924;DHT22;10124;53.068;18.224;2023-03-01T14:52:01;13.90;1.00
19924;DHT22;10124;53.068;18.224;2023-03-01T14:54:43;13.40;1.00
19924;DHT22;10124;53.068;18.224;2023-03-01T14:57:25;12.50;1.00
19924;DHT22;10124;53.068;18.224;2023-03-01T14:59:57;12.20;1.00
19924;DHT22;10124;53.068;18.224;2023-03-01T15:02:26;11.80;1.00
19924;DHT22;10124;53.068;18.224;2023-03-01T15:04:58;11.40;1.00
19924;DHT22;10124;53.068;18.224;2023-03-01T15:07:39;11.10;1.00
19924;DHT22;10124;53.068;18.224;2023-03-01T15:10:24;11.00;1.00
19924;DHT22;10124;53.068;18.224;2023-03-01T15:12:52;10.80;1.00
19924;DHT22;10124;53.068;18.224;2023-03-01T15:15:30;10.50;1.00
19924;DHT22;10124;53.068;18.224;2023-03-01T15:18:21;10.30;1.00
19924;DHT22;10124;53.068;18.224;2023-03-01T15:20:48;10.20;1.00
19924;DHT22;10124;53.068;18.224;2023-03-01T15:23:28;9.90;1.00
19924;DHT22;10124;53.068;18.224;2023-03-01T15:25:57;9.80;1.00
19924;DHT22;10124;53.068;18.224;2023-03-01T15:28:32;9.60;1.00
19924;DHT22;10124;53.068;18.224;2023-03-01T15:31:07;9.50;1.00
19924;DHT22;10124;53.068;18.224;2023-03-01T15:33:40;9.30;1.00
19924;DHT22;10124;53.068;18.224;2023-03-01T15:36:38;9.10;1.00
19924;DHT22;10124;53.068;18.224;2023-03-01T15:39:33;9.00;1.00
19924;DHT22;10124;53.068;18.224;2023-03-01T15:48:04;8.70;1.00
19924;DHT22;10124;53.068;18.224;2023-03-01T15:50:34;8.40;1.00
19924;DHT22;10124;53.068;18.224;2023-03-01T15:53:13;8.40;1.00
19924;DHT22;10124;53.068;18.224;2023-03-01T15:55:45;8.30;1.00
19924;DHT22;10124;53.068;18.224;2023-03-01T15:58:20;8.20;1.00
19924;DHT22;10124;53.068;18.224;2023-03-01T16:00:48;8.00;1.00
19924;DHT22;10124;53.068;18.224;2023-03-01T16:03:28;7.80;1.00
19924;DHT22;10124;53.068;18.224;2023-03-01T16:05:56;7.70;1.00
19924;DHT22;10124;53.068;18.224;2023-03-01T16:08:24;7.60;1.00
19924;DHT22;10124;53.068;18.224;2023-03-01T16:10:51;7.50;1.00
19924;DHT22;10124;53.068;18.224;2023-03-01T16:13:21;7.30;1.00
19924;DHT22;10124;53.068;18.224;2023-03-01T16:15:49;7.00;1.00
19924;DHT22;10124;53.068;18.224;2023-03-01T16:18:17;6.80;1.00
19924;DHT22;10124;53.068;18.224;2023-03-01T16:20:44;6.50;1.00
19924;DHT22;10124;53.068;18.224;2023-03-01T16:23:12;6.10;1.00
19924;DHT22;10124;53.068;18.224;2023-03-01T16:25:41;6.00;1.00
19924;DHT22;10124;53.068;18.224;2023-03-01T16:28:09;5.80;1.00
19924;DHT22;10124;53.068;18.224;2023-03-01T16:30:38;5.60;1.00
19924;DHT22;10124;53.068;18.224;2023-03-01T16:33:07;5.50;1.00
19924;DHT22;10124;53.068;18.224;2023-03-01T16:35:56;5.50;1.00
19924;DHT22;10124;53.068;18.224;2023-03-01T16:38:24;5.20;1.00
19924;DHT22;10124;53.068;18.224;2023-03-01T16:40:52;5.10;1.00
19924;DHT22;10124;53.068;18.224;2023-03-01T16:43:20;4.90;1.00
19924;DHT22;10124;53.068;18.224;2023-03-01T16:45:47;4.70;1.00
19924;DHT22;10124;53.068;18.224;2023-03-01T16:48:15;4.60;1.00
19924;DHT22;10124;53.068;18.224;2023-03-01T16:50:42;4.50;1.00
19924;DHT22;10124;53.068;18.224;2023-03-01T16:53:10;4.30;1.00
19924;DHT22;10124;53.068;18.224;2023-03-01T16:55:38;4.20;1.00
19924;DHT22;10124;53.068;18.224;2023-03-01T16:58:12;3.90;1.00
19924;DHT22;10124;53.068;18.224;2023-03-01T17:00:42;3.90;1.00
19924;DHT22;10124;53.068;18.224;2023-03-01T17:03:10;3.70;1.00
19924;DHT22;10124;53.068;18.224;2023-03-01T17:05:40;3.70;1.00
19924;DHT22;10124;53.068;18.224;2023-03-01T17:08:08;3.70;1.00
19924;DHT22;10124;53.068;18.224;2023-03-01T17:10:35;3.60;1.00
19924;DHT22;10124;53.068;18.224;2023-03-01T17:13:03;3.40;1.00
19924;DHT22;10124;53.068;18.224;2023-03-01T17:15:30;3.20;1.00
19924;DHT22;10124;53.068;18.224;2023-03-01T17:17:58;3.20;1.00
19924;DHT22;10124;53.068;18.224;2023-03-01T17:20:25;3.00;1.00
19924;DHT22;10124;53.068;18.224;2023-03-01T17:22:53;2.90;1.00
19924;DHT22;10124;53.068;18.224;2023-03-01T17:25:20;2.80;1.00
19924;DHT22;10124;53.068;18.224;2023-03-01T17:27:48;2.70;1.00
19924;DHT22;10124;53.068;18.224;2023-03-01T17:30:16;2.70;1.00
19924;DHT22;10124;53.068;18.224;2023-03-01T17:35:12;2.60;1.00
19924;DHT22;10124;53.068;18.224;2023-03-01T17:37:40;3.60;1.00
19924;DHT22;10124;53.068;18.224;2023-03-01T17:40:12;2.40;1.00
19924;DHT22;10124;53.068;18.224;2023-03-01T17:42:40;2.50;1.00
19924;DHT22;10124;53.068;18.224;2023-03-01T17:45:08;2.40;1.00
19924;DHT22;10124;53.068;18.224;2023-03-01T17:47:36;2.10;1.00
19924;DHT22;10124;53.068;18.224;2023-03-01T17:50:04;2.10;1.00
19924;DHT22;10124;53.068;18.224;2023-03-01T17:52:33;1.90;1.00
19924;DHT22;10124;53.068;18.224;2023-03-01T17:55:00;1.90;1.00
19924;DHT22;10124;53.068;18.224;2023-03-01T17:57:29;1.80;1.00
19924;DHT22;10124;53.068;18.224;2023-03-01T17:59:57;1.70;1.00
19924;DHT22;10124;53.068;18.224;2023-03-01T18:02:25;1.60;1.00
19924;DHT22;10124;53.068;18.224;2023-03-01T18:04:57;1.40;1.00
19924;DHT22;10124;53.068;18.224;2023-03-01T18:07:27;1.40;1.00
19924;DHT22;10124;53.068;18.224;2023-03-01T18:09:55;3.50;3.20
19924;DHT22;10124;53.068;18.224;2023-03-01T18:12:23;1.30;93.60
19924;DHT22;10124;53.068;18.224;2023-03-01T18:14:51;1.30;1.00
19924;DHT22;10124;53.068;18.224;2023-03-01T18:17:23;1.30;3.20
19924;DHT22;10124;53.068;18.224;2023-03-01T18:37:15;1.30;99.90
19924;DHT22;10124;53.068;18.224;2023-03-01T18:44:46;0.80;99.90
19924;DHT22;10124;53.068;18.224;2023-03-01T18:49:43;0.40;99.90
19924;DHT22;10124;53.068;18.224;2023-03-01T18:59:35;0.50;99.90
19924;DHT22;10124;53.068;18.224;2023-03-01T19:02:04;0.10;99.90
19924;DHT22;10124;53.068;18.224;2023-03-01T19:04:32;0.40;99.90
19924;DHT22;10124;53.068;18.224;2023-03-01T19:07:00;0.30;99.90
19924;DHT22;10124;53.068;18.224;2023-03-01T19:09:28;0.40;99.90
19924;DHT22;10124;53.068;18.224;2023-03-01T19:14:28;0.20;99.90
19924;DHT22;10124;53.068;18.224;2023-03-01T19:16:56;0.30;99.90
19924;DHT22;10124;53.068;18.224;2023-03-01T19:21:52;0.00;99.90
19924;DHT22;10124;53.068;18.224;2023-03-01T19:27:00;0.30;1.00
19924;DHT22;10124;53.068;18.224;2023-03-01T19:29:27;-0.30;1.00
19924;DHT22;10124;53.068;18.224;2023-03-01T19:31:55;0.10;99.90
19924;DHT22;10124;53.068;18.224;2023-03-01T19:36:52;-0.50;1.00
19924;DHT22;10124;53.068;18.224;2023-03-01T19:39:20;-0.10;99.90
19924;DHT22;10124;53.068;18.224;2023-03-01T19:41:48;-0.10;99.90
19924;DHT22;10124;53.068;18.224;2023-03-01T19:44:17;-0.20;99.90
19924;DHT22;10124;53.068;18.224;2023-03-01T19:46:45;1.70;1.00
19924;DHT22;10124;53.068;18.224;2023-03-01T19:49:13;-0.30;99.90
19924;DHT22;10124;53.068;18.224;2023-03-01T19:51:40;-0.30;1.00
19924;DHT22;10124;53.068;18.224;2023-03-01T19:54:08;-0.30;1.00
19924;DHT22;10124;53.068;18.224;2023-03-01T19:56:39;-0.70;1.00
19924;DHT22;10124;53.068;18.224;2023-03-01T19:59:07;-0.30;1.00
19924;DHT22;10124;53.068;18.224;2023-03-01T20:01:37;-0.50;1.00
19924;DHT22;10124;53.068;18.224;2023-03-01T20:04:11;-0.50;1.00
19924;DHT22;10124;53.068;18.224;2023-03-01T20:06:40;-0.70;1.00
19924;DHT22;10124;53.068;18.224;2023-03-01T20:09:08;-0.50;1.00
19924;DHT22;10124;53.068;18.224;2023-03-01T20:16:51;-0.10;1.00
19924;DHT22;10124;53.068;18.224;2023-03-01T20:26:45;-0.20;1.00
19924;DHT22;10124;53.068;18.224;2023-03-01T20:34:10;-0.70;1.00
19924;DHT22;10124;53.068;18.224;2023-03-01T20:36:52;-0.70;1.00
19924;DHT22;10124;53.068;18.224;2023-03-01T20:46:47;-0.90;1.00
19924;DHT22;10124;53.068;18.224;2023-03-01T20:49:17;-0.90;1.00
19924;DHT22;10124;53.068;18.224;2023-03-01T21:11:34;-1.10;1.00
19924;DHT22;10124;53.068;18.224;2023-03-01T21:14:02;-1.10;1.00
19924;DHT22;10124;53.068;18.224;2023-03-01T21:28:59;-1.30;1.00
19924;DHT22;10124;53.068;18.224;2023-03-01T21:31:33;-1.40;1.00
19924;DHT22;10124;53.068;18.224;2023-03-01T21:34:04;-1.30;1.00
19924;DHT22;10124;53.068;18.224;2023-03-01T21:39:04;-1.10;1.00
19924;DHT22;10124;53.068;18.224;2023-03-01T21:41:35;-1.50;1.00
19924;DHT22;10124;53.068;18.224;2023-03-01T21:44:04;-0.50;1.00
19924;DHT22;10124;53.068;18.224;2023-03-01T21:46:37;-1.40;1.00
19924;DHT22;10124;53.068;18.224;2023-03-01T21:49:06;-1.10;1.00
19924;DHT22;10124;53.068;18.224;2023-03-01T21:51:35;-1.40;1.00
19924;DHT22;10124;53.068;18.224;2023-03-01T21:54:04;-1.50;1.00
19924;DHT22;10124;53.068;18.224;2023-03-01T21:56:34;-1.60;1.00
19924;DHT22;10124;53.068;18.224;2023-03-01T21:59:09;-1.60;1.00
19924;DHT22;10124;53.068;18.224;2023-03-01T22:01:38;-1.50;1.00
19924;DHT22;10124;53.068;18.224;2023-03-01T22:04:06;-1.60;1.00
19924;DHT22;10124;53.068;18.224;2023-03-01T22:06:36;-1.60;1.00
19924;DHT22;10124;53.068;18.224;2023-03-01T22:09:18;-1.70;1.00
19924;DHT22;10124;53.068;18.224;2023-03-01T22:11:53;-0.60;1.00
19924;DHT22;10124;53.068;18.224;2023-03-01T22:14:21;-1.70;1.00
19924;DHT22;10124;53.068;18.224;2023-03-01T22:16:49;-1.70;1.00
19924;DHT22;10124;53.068;18.224;2023-03-01T22:19:18;-1.70;1.00
19924;DHT22;10124;53.068;18.224;2023-03-01T22:21:49;-1.70;1.00
19924;DHT22;10124;53.068;18.224;2023-03-01T22:24:21;-1.60;1.00
19924;DHT22;10124;53.068;18.224;2023-03-01T22:26:50;-1.70;1.00
19924;DHT22;10124;53.068;18.224;2023-03-01T22:29:25;-1.80;1.00
19924;DHT22;10124;53.068;18.224;2023-03-01T22:31:55;-1.50;47.30
19924;DHT22;10124;53.068;18.224;2023-03-01T22:34:23;-1.60;1.00
19924;DHT22;10124;53.068;18.224;2023-03-01T22:36:51;-1.70;1.00
19924;DHT22;10124;53.068;18.224;2023-03-01T22:39:20;-1.70;1.00
19924;DHT22;10124;53.068;18.224;2023-03-01T22:41:48;-1.60;1.00
19924;DHT22;10124;53.068;18.224;2023-03-01T22:44:22;-0.50;1.00
19924;DHT22;10124;53.068;18.224;2023-03-01T22:46:50;-1.60;1.00
19924;DHT22;10124;53.068;18.224;2023-03-01T22:49:19;-0.80;1.00
19924;DHT22;10124;53.068;18.224;2023-03-01T22:51:47;-1.30;1.00
19924;DHT22;10124;53.068;18.224;2023-03-01T22:54:16;-1.30;1.00
19924;DHT22;10124;53.068;18.224;2023-03-01T22:56:44;-0.90;1.00
19924;DHT22;10124;53.068;18.224;2023-03-01T22:59:14;-1.10;72.20
19924;DHT22;10124;53.068;18.224;2023-03-01T23:01:43;1.60;1.00
19924;DHT22;10124;53.068;18.224;2023-03-01T23:04:14;-1.10;34.40
19924;DHT22;10124;53.068;18.224;2023-03-01T23:06:43;-1.00;91.50
19924;DHT22;10124;53.068;18.224;2023-03-01T23:09:18;-1.00;99.90
19924;DHT22;10124;53.068;18.224;2023-03-01T23:11:49;-1.00;15.60
19924;DHT22;10124;53.068;18.224;2023-03-01T23:14:19;-1.00;98.50
19924;DHT22;10124;53.068;18.224;2023-03-01T23:16:48;-0.90;24.70
19924;DHT22;10124;53.068;18.224;2023-03-01T23:19:17;-0.90;39.50
19924;DHT22;10124;53.068;18.224;2023-03-01T23:24:18;-0.70;99.90
19924;DHT22;10124;53.068;18.224;2023-03-01T23:26:47;-0.90;30.10
19924;DHT22;10124;53.068;18.224;2023-03-01T23:29:21;-0.90;46.70